createdAt,value
2022-10-13T00:01:01.083Z,57.34
2022-10-13T00:03:28.021Z,57.28
2022-10-13T00:05:54.896Z,57.23
2022-10-13T00:08:22.368Z,57.62
2022-10-13T00:10:51.168Z,57.74
2022-10-13T00:13:23.710Z,57.72
2022-10-13T00:15:50.631Z,57.68
2022-10-13T00:18:17.688Z,57.52
2022-10-13T00:20:48.528Z,57.74
2022-10-13T00:23:16.390Z,57.79
2022-10-13T00:25:45.675Z,57.70
2022-10-13T00:28:13.357Z,57.82
2022-10-13T00:30:40.655Z,57.70
2022-10-13T00:33:08.936Z,57.66
2022-10-13T00:35:45.335Z,57.99
2022-10-13T00:38:17.148Z,57.81
2022-10-13T00:40:53.754Z,57.89
2022-10-13T00:43:27.321Z,57.97
2022-10-13T00:45:54.688Z,58.12
2022-10-13T00:48:27.715Z,58.32
2022-10-13T00:50:56.462Z,58.22
2022-10-13T00:53:27.511Z,58.31
2022-10-13T00:55:55.248Z,58.58
2022-10-13T00:58:25.563Z,58.73
2022-10-13T01:00:53.647Z,58.77
2022-10-13T01:03:21.372Z,58.93
2022-10-13T01:05:50.852Z,58.91
2022-10-13T01:08:20.031Z,59.43
2022-10-13T01:11:33.239Z,59.31
2022-10-13T01:14:26.825Z,59.38
2022-10-13T01:17:04.203Z,59.32
2022-10-13T01:20:27.456Z,59.49
2022-10-13T01:23:27.628Z,59.47
2022-10-13T01:26:43.743Z,59.84
2022-10-13T01:29:58.955Z,60.03
2022-10-13T01:33:11.951Z,60.44
2022-10-13T01:35:56.783Z,60.60
2022-10-13T01:38:35.519Z,60.89
2022-10-13T01:41:27.606Z,60.89
2022-10-13T01:44:02.749Z,61.05
2022-10-13T01:46:38.595Z,60.88
2022-10-13T01:49:11.337Z,60.78
2022-10-13T01:51:40.083Z,60.49
2022-10-13T01:54:07.276Z,60.63
2022-10-13T01:56:34.152Z,60.60
2022-10-13T01:59:10.087Z,60.35
2022-10-13T02:02:00.168Z,60.39
2022-10-13T02:04:54.243Z,60.20
2022-10-13T02:07:46.163Z,60.14
2022-10-13T02:10:48.445Z,60.10
2022-10-13T02:13:17.743Z,60.16
2022-10-13T02:15:49.456Z,60.04
2022-10-13T02:18:22.527Z,59.88
2022-10-13T02:20:51.146Z,60.07
2022-10-13T02:23:19.301Z,60.12
2022-10-13T02:25:47.682Z,60.21
2022-10-13T02:28:16.062Z,60.29
2022-10-13T02:30:44.728Z,60.38
2022-10-13T02:33:12.701Z,60.75
2022-10-13T02:35:39.961Z,60.66
2022-10-13T02:38:06.991Z,60.52
2022-10-13T02:40:33.965Z,60.46
2022-10-13T02:43:00.871Z,60.25
2022-10-13T02:45:27.755Z,60.59
2022-10-13T02:47:55.366Z,60.46
2022-10-13T02:50:22.245Z,60.46
2022-10-13T02:52:50.497Z,60.62
2022-10-13T02:55:17.456Z,60.43
2022-10-13T02:57:46.076Z,60.39
2022-10-13T03:00:14.592Z,60.34
2022-10-13T03:02:41.811Z,60.26
2022-10-13T03:05:09.624Z,60.24
2022-10-13T03:07:36.913Z,60.36
2022-10-13T03:10:04.996Z,60.21
2022-10-13T03:12:31.868Z,60.18
2022-10-13T03:14:58.732Z,60.11
2022-10-13T03:17:25.833Z,60.15
2022-10-13T03:19:52.691Z,60.04
2022-10-13T03:22:19.785Z,59.93
2022-10-13T03:24:46.862Z,60.40
2022-10-13T03:27:14.247Z,60.33
2022-10-13T03:29:41.199Z,60.47
2022-10-13T03:32:08.059Z,60.38
2022-10-13T03:34:34.954Z,60.62
2022-10-13T03:37:01.864Z,60.54
2022-10-13T03:39:33.938Z,60.71
2022-10-13T03:42:01.856Z,61.11
2022-10-13T03:44:28.760Z,61.14
2022-10-13T03:46:55.627Z,60.94
2022-10-13T03:49:22.524Z,61.09
2022-10-13T03:51:49.401Z,61.09
2022-10-13T03:54:16.385Z,61.04
2022-10-13T03:56:46.733Z,61.46
2022-10-13T03:59:14.648Z,61.25
2022-10-13T04:01:41.564Z,61.43
2022-10-13T04:04:12.351Z,61.54
2022-10-13T04:06:41.873Z,61.57
2022-10-13T04:09:09.525Z,61.70
2022-10-13T04:11:36.414Z,61.62
2022-10-13T04:14:03.666Z,61.51
2022-10-13T04:16:32.199Z,61.51
2022-10-13T04:19:03.543Z,61.58
2022-10-13T04:21:33.511Z,61.50
2022-10-13T04:24:01.448Z,61.35
2022-10-13T04:26:31.345Z,61.39
2022-10-13T04:28:59.317Z,61.58
2022-10-13T04:31:28.932Z,61.71
2022-10-13T04:33:56.133Z,61.60
2022-10-13T04:36:23.871Z,61.57
2022-10-13T04:38:51.281Z,61.51
2022-10-13T04:41:19.092Z,61.57
2022-10-13T04:43:50.752Z,61.93
2022-10-13T04:46:25.524Z,61.38
2022-10-13T04:48:55.563Z,61.64
2022-10-13T04:51:26.539Z,61.28
2022-10-13T04:54:01.387Z,61.27
2022-10-13T04:56:28.524Z,61.18
2022-10-13T04:59:00.044Z,61.23
2022-10-13T05:01:27.249Z,61.20
2022-10-13T05:03:57.130Z,61.27
2022-10-13T05:06:28.629Z,61.33
2022-10-13T05:08:56.222Z,61.26
2022-10-13T05:11:24.341Z,61.36
2022-10-13T05:13:51.383Z,61.17
2022-10-13T05:16:20.942Z,61.58
2022-10-13T05:18:49.443Z,61.24
2022-10-13T05:21:20.406Z,61.63
2022-10-13T05:23:47.408Z,61.31
2022-10-13T05:26:17.950Z,61.37
2022-10-13T05:28:45.564Z,61.73
2022-10-13T05:31:21.459Z,61.62
2022-10-13T05:33:49.398Z,61.58
2022-10-13T05:36:31.963Z,61.59
2022-10-13T05:39:03.440Z,61.87
2022-10-13T05:41:30.744Z,62.02
2022-10-13T05:44:01.556Z,61.86
2022-10-13T05:46:28.732Z,61.61
2022-10-13T05:48:55.784Z,61.92
2022-10-13T05:51:33.868Z,61.92
2022-10-13T05:54:24.362Z,61.93
2022-10-13T05:57:00.430Z,61.76
2022-10-13T05:59:33.015Z,61.92
2022-10-13T06:02:01.912Z,61.68
2022-10-13T06:04:57.299Z,61.83
2022-10-13T06:07:24.798Z,62.05
2022-10-13T06:09:51.847Z,61.77
2022-10-13T06:12:19.026Z,61.87
2022-10-13T06:14:46.472Z,61.89
2022-10-13T06:17:14.150Z,61.89
2022-10-13T06:19:43.204Z,61.97
2022-10-13T06:22:10.085Z,62.09
2022-10-13T06:24:36.987Z,62.19
2022-10-13T06:27:07.209Z,62.47
2022-10-13T06:29:34.101Z,62.56
2022-10-13T06:32:00.946Z,62.46
2022-10-13T06:34:27.809Z,62.60
2022-10-13T06:36:54.671Z,62.58
2022-10-13T06:39:21.607Z,62.31
2022-10-13T06:41:49.689Z,62.42
2022-10-13T06:44:16.663Z,62.45
2022-10-13T06:46:43.520Z,62.61
2022-10-13T06:49:10.408Z,62.65
2022-10-13T06:51:37.507Z,62.56
2022-10-13T06:54:04.366Z,62.59
2022-10-13T06:56:33.517Z,62.57
2022-10-13T06:59:05.542Z,62.81
2022-10-13T07:01:36.684Z,63.15
2022-10-13T07:04:09.125Z,62.83
2022-10-13T07:06:36.042Z,63.22
2022-10-13T07:09:07.858Z,63.01
2022-10-13T07:11:35.777Z,63.17
2022-10-13T07:14:03.049Z,63.15
2022-10-13T07:16:30.065Z,62.86
2022-10-13T07:18:56.910Z,63.62
2022-10-13T07:21:23.761Z,63.46
2022-10-13T07:23:50.610Z,63.32
2022-10-13T07:26:17.574Z,63.81
2022-10-13T07:28:45.157Z,64.07
2022-10-13T07:31:17.582Z,63.74
2022-10-13T07:33:47.714Z,63.84
2022-10-13T07:36:17.138Z,64.14
2022-10-13T07:38:44.110Z,63.64
2022-10-13T07:41:12.621Z,64.31
2022-10-13T07:43:40.230Z,63.55
2022-10-13T07:46:08.661Z,63.51
2022-10-13T07:48:36.146Z,63.80
2022-10-13T07:51:09.910Z,63.57
2022-10-13T07:53:37.087Z,63.53
2022-10-13T07:56:07.516Z,63.30
2022-10-13T07:58:38.255Z,63.54
2022-10-13T08:01:05.531Z,63.10
2022-10-13T08:03:38.862Z,62.98
2022-10-13T08:06:07.624Z,62.50
2022-10-13T08:08:34.916Z,62.51
2022-10-13T08:11:10.018Z,62.14
2022-10-13T08:13:38.285Z,61.97
2022-10-13T08:16:17.119Z,61.86
2022-10-13T08:18:43.996Z,61.56
2022-10-13T08:21:57.471Z,61.06
2022-10-13T08:24:06.344Z,61.08
2022-10-13T08:26:33.472Z,60.62
2022-10-13T08:29:20.593Z,60.76
2022-10-13T08:31:47.317Z,60.45
2022-10-13T08:34:14.283Z,60.59
2022-10-13T08:36:41.197Z,60.56
2022-10-13T08:39:08.122Z,60.54
2022-10-13T08:41:45.960Z,60.47
2022-10-13T08:47:44.799Z,60.41
2022-10-13T08:50:16.382Z,60.36
2022-10-13T08:52:59.807Z,59.42
2022-10-13T08:55:43.159Z,59.29
2022-10-13T08:58:20.994Z,58.91
2022-10-13T09:00:47.872Z,59.27
2022-10-13T09:03:29.259Z,58.93
2022-10-13T09:06:10.291Z,58.57
2022-10-13T09:09:01.945Z,58.65
2022-10-13T09:11:34.778Z,58.33
2022-10-13T09:14:07.071Z,58.04
2022-10-13T09:16:40.370Z,58.30
2022-10-13T09:19:25.950Z,57.96
2022-10-13T09:22:13.657Z,58.20
2022-10-13T09:24:40.811Z,57.87
2022-10-13T09:27:14.764Z,57.55
2022-10-13T09:29:42.867Z,57.52
2022-10-13T09:32:18.990Z,57.69
2022-10-13T09:34:47.081Z,57.82
2022-10-13T09:37:21.434Z,57.75
2022-10-13T09:40:20.583Z,57.34
2022-10-13T09:42:54.372Z,57.35
2022-10-13T09:45:24.791Z,56.92
2022-10-13T09:47:55.447Z,57.11
2022-10-13T09:50:31.894Z,57.06
2022-10-13T09:53:29.824Z,56.60
2022-10-13T09:56:30.640Z,56.98
2022-10-13T09:59:27.387Z,56.13
2022-10-13T10:01:56.965Z,55.85
2022-10-13T10:04:31.928Z,55.58
2022-10-13T10:06:58.810Z,55.55
2022-10-13T10:09:47.450Z,55.71
2022-10-13T10:12:24.206Z,55.72
2022-10-13T10:14:54.547Z,55.29
2022-10-13T10:17:37.023Z,55.66
2022-10-13T10:20:06.587Z,55.50
2022-10-13T10:22:55.304Z,55.26
2022-10-13T10:25:41.671Z,55.29
2022-10-13T10:28:28.887Z,55.39
2022-10-13T10:31:25.353Z,55.31
2022-10-13T10:34:27.133Z,55.56
2022-10-13T10:37:25.536Z,55.51
2022-10-13T10:40:41.501Z,54.54
2022-10-13T10:43:38.974Z,54.94
2022-10-13T10:46:23.558Z,54.33
2022-10-13T10:48:56.765Z,53.76
2022-10-13T10:51:31.068Z,53.89
2022-10-13T10:54:48.375Z,53.74
2022-10-13T10:57:27.961Z,53.34
2022-10-13T11:00:15.749Z,53.41
2022-10-13T11:03:27.517Z,53.55
2022-10-13T11:05:57.369Z,53.73
2022-10-13T11:08:44.602Z,53.28
2022-10-13T11:11:38.429Z,54.69
2022-10-13T11:14:10.675Z,55.20
2022-10-13T11:17:02.103Z,53.70
2022-10-13T11:19:34.377Z,53.90
2022-10-13T11:22:01.144Z,53.24
2022-10-13T11:24:42.119Z,53.27
2022-10-13T11:27:35.079Z,52.14
2022-10-13T11:30:03.479Z,52.48
2022-10-13T11:32:41.073Z,52.63
2022-10-13T11:35:08.331Z,52.05
2022-10-13T11:38:06.780Z,51.29
2022-10-13T11:41:10.824Z,51.22
2022-10-13T11:43:51.274Z,51.76
2022-10-13T11:46:57.901Z,51.91
2022-10-13T11:50:04.262Z,52.10
2022-10-13T11:53:08.009Z,51.60
2022-10-13T11:55:55.136Z,51.44
2022-10-13T11:58:28.629Z,51.75
2022-10-13T12:01:08.675Z,51.30
2022-10-13T12:03:39.802Z,51.38
2022-10-13T12:06:22.813Z,50.76
2022-10-13T12:08:52.052Z,50.85
2022-10-13T12:11:32.387Z,50.56
2022-10-13T12:14:01.083Z,50.69
2022-10-13T12:16:29.425Z,50.34
2022-10-13T12:19:19.865Z,50.66
2022-10-13T12:21:52.164Z,50.40
2022-10-13T12:24:23.331Z,50.85
2022-10-13T12:26:51.454Z,50.80
2022-10-13T12:29:24.650Z,50.54
2022-10-13T12:31:52.286Z,50.41
2022-10-13T12:34:32.786Z,50.58
2022-10-13T12:37:14.190Z,51.05
2022-10-13T12:39:41.369Z,51.06
2022-10-13T12:42:11.460Z,51.09
2022-10-13T12:44:38.902Z,51.04
2022-10-13T12:47:06.129Z,50.83
2022-10-13T12:49:36.192Z,50.92
2022-10-13T12:52:09.277Z,50.89
2022-10-13T12:54:47.473Z,51.36
2022-10-13T12:57:36.018Z,50.99
2022-10-13T13:00:17.326Z,50.52
2022-10-13T13:03:02.247Z,50.57
2022-10-13T13:05:41.031Z,50.86
2022-10-13T13:08:29.633Z,50.84
2022-10-13T13:11:01.941Z,50.63
2022-10-13T13:13:29.581Z,50.83
2022-10-13T13:16:20.952Z,51.23
2022-10-13T13:18:50.603Z,51.23
2022-10-13T13:21:20.088Z,50.96
2022-10-13T13:23:52.845Z,50.95
2022-10-13T13:26:23.665Z,50.82
2022-10-13T13:28:55.959Z,50.80
2022-10-13T13:31:25.689Z,50.20
2022-10-13T13:33:53.127Z,50.66
2022-10-13T13:36:24.292Z,50.28
2022-10-13T13:38:54.644Z,50.74
2022-10-13T13:41:22.402Z,50.34
2022-10-13T13:43:50.457Z,50.40
2022-10-13T13:46:24.746Z,50.25
2022-10-13T13:48:52.037Z,50.54
2022-10-13T13:51:19.254Z,50.42
2022-10-13T13:53:46.794Z,50.73
2022-10-13T13:56:18.017Z,50.75
2022-10-13T13:58:45.392Z,50.51
2022-10-13T14:01:13.807Z,50.80
2022-10-13T14:03:40.690Z,50.99
2022-10-13T14:06:08.830Z,51.12
2022-10-13T14:08:42.584Z,50.89
2022-10-13T14:11:10.263Z,51.12
2022-10-13T14:13:37.150Z,51.19
2022-10-13T14:16:04.636Z,50.93
2022-10-13T14:18:32.125Z,50.93
2022-10-13T14:20:59.129Z,51.37
2022-10-13T14:23:26.131Z,51.21
2022-10-13T14:25:53.009Z,51.69
2022-10-13T14:28:20.852Z,51.45
2022-10-13T14:30:48.017Z,51.42
2022-10-13T14:33:19.252Z,51.57
2022-10-13T14:35:46.922Z,51.32
2022-10-13T14:38:16.376Z,51.47
2022-10-13T14:40:44.492Z,51.67
2022-10-13T14:43:11.374Z,51.19
2022-10-13T14:45:38.242Z,51.25
2022-10-13T14:48:06.026Z,51.20
2022-10-13T14:50:34.331Z,51.74
2022-10-13T14:53:01.230Z,51.77
2022-10-13T14:55:28.766Z,51.61
2022-10-13T14:57:55.646Z,51.99
2022-10-13T15:00:22.506Z,51.63
2022-10-13T15:02:49.370Z,52.16
2022-10-13T15:05:16.348Z,51.96
2022-10-13T15:07:43.224Z,51.47
2022-10-13T15:10:10.228Z,51.42
2022-10-13T15:12:37.094Z,51.39
2022-10-13T15:15:04.944Z,51.94
2022-10-13T15:17:33.233Z,51.41
2022-10-13T15:20:00.461Z,51.55
2022-10-13T15:22:27.366Z,51.55
2022-10-13T15:24:54.237Z,51.55
2022-10-13T15:27:21.129Z,51.36
2022-10-13T15:29:48.005Z,51.79
2022-10-13T15:32:18.609Z,52.23
2022-10-13T15:34:50.392Z,52.31
2022-10-13T15:37:17.288Z,52.46
2022-10-13T15:39:44.153Z,52.55
2022-10-13T15:42:12.132Z,52.22
2022-10-13T15:47:25.897Z,52.80
2022-10-13T15:49:52.771Z,52.70
2022-10-13T15:52:20.107Z,53.04
2022-10-13T15:54:51.229Z,52.60
2022-10-13T15:57:18.251Z,52.72
2022-10-13T15:59:45.131Z,52.92
2022-10-13T16:02:12.031Z,52.68
2022-10-13T16:04:38.995Z,53.54
2022-10-13T16:07:05.877Z,53.17
2022-10-13T16:09:32.767Z,53.30
2022-10-13T16:11:59.712Z,53.54
2022-10-13T16:14:26.595Z,53.52
2022-10-13T16:16:53.454Z,53.90
2022-10-13T16:19:20.400Z,53.65
2022-10-13T16:21:47.269Z,53.69
2022-10-13T16:24:14.894Z,54.36
2022-10-13T16:26:41.762Z,53.87
2022-10-13T16:29:08.671Z,54.12
2022-10-13T16:31:35.560Z,54.23
2022-10-13T16:34:02.452Z,54.45
2022-10-13T16:36:29.388Z,54.48
2022-10-13T16:38:56.299Z,54.45
2022-10-13T16:41:23.884Z,54.75
2022-10-13T16:43:50.818Z,54.82
2022-10-13T16:46:20.514Z,54.49
2022-10-13T16:48:48.278Z,54.50
2022-10-13T16:51:21.940Z,54.68
2022-10-13T16:53:57.608Z,54.55
2022-10-13T16:56:28.115Z,54.71
2022-10-13T16:58:58.375Z,55.11
2022-10-13T17:01:26.055Z,55.50
2022-10-13T17:03:53.450Z,55.37
2022-10-13T17:06:23.716Z,55.81
2022-10-13T17:09:03.074Z,55.81
2022-10-13T17:11:31.921Z,55.88
2022-10-13T17:14:00.200Z,56.25
2022-10-13T17:16:31.296Z,55.95
2022-10-13T17:18:58.189Z,56.65
2022-10-13T17:21:33.091Z,56.38
2022-10-13T17:23:59.956Z,56.44
2022-10-13T17:26:26.824Z,56.25
2022-10-13T17:28:54.351Z,56.62
2022-10-13T17:31:23.749Z,56.75
2022-10-13T17:33:51.555Z,56.92
2022-10-13T17:36:26.860Z,57.10
2022-10-13T17:38:55.871Z,56.63
2022-10-13T17:41:24.312Z,56.86
2022-10-13T17:43:51.984Z,56.90
2022-10-13T17:46:40.598Z,57.00
2022-10-13T17:49:11.399Z,57.12
2022-10-13T17:51:40.364Z,57.12
2022-10-13T17:54:11.489Z,57.25
2022-10-13T17:56:41.600Z,57.55
2022-10-13T17:59:09.855Z,57.57
2022-10-13T18:01:37.560Z,57.31
2022-10-13T18:04:08.477Z,57.26
2022-10-13T18:06:43.645Z,57.69
2022-10-13T18:09:14.434Z,58.03
2022-10-13T18:11:48.818Z,58.02
2022-10-13T18:14:19.755Z,57.69
2022-10-13T18:16:50.542Z,58.32
2022-10-13T18:19:17.723Z,57.91
2022-10-13T18:21:44.608Z,57.99
2022-10-13T18:24:12.058Z,57.96
2022-10-13T18:26:39.363Z,58.35
2022-10-13T18:29:08.569Z,58.20
2022-10-13T18:31:37.714Z,58.71
2022-10-13T18:34:12.376Z,58.71
2022-10-13T18:36:47.242Z,58.27
2022-10-13T18:39:17.924Z,58.39
2022-10-13T18:41:47.917Z,58.72
2022-10-13T18:44:14.983Z,58.61
2022-10-13T18:46:42.480Z,58.61
2022-10-13T18:49:12.984Z,58.77
2022-10-13T18:51:42.074Z,58.58
2022-10-13T18:54:09.040Z,58.59
2022-10-13T18:56:37.024Z,58.95
2022-10-13T18:59:06.381Z,58.82
2022-10-13T19:01:35.475Z,59.21
2022-10-13T19:04:02.695Z,58.75
2022-10-13T19:06:32.197Z,59.42
2022-10-13T19:09:06.612Z,59.13
2022-10-13T19:11:37.026Z,58.84
2022-10-13T19:14:06.882Z,58.96
2022-10-13T19:16:38.491Z,58.99
2022-10-13T19:19:06.685Z,59.22
2022-10-13T19:21:33.563Z,59.02
2022-10-13T19:24:01.075Z,59.27
2022-10-13T19:26:32.490Z,59.07
2022-10-13T19:29:07.574Z,59.05
2022-10-13T19:31:36.180Z,59.00
2022-10-13T19:34:08.020Z,59.19
2022-10-13T19:36:42.108Z,59.28
2022-10-13T19:39:20.557Z,58.50
2022-10-13T19:41:49.229Z,58.90
2022-10-13T19:44:18.380Z,58.58
2022-10-13T19:46:46.709Z,58.95
2022-10-13T19:49:17.167Z,58.58
2022-10-13T19:51:47.789Z,59.06
2022-10-13T19:54:15.303Z,58.66
2022-10-13T19:56:48.226Z,58.78
2022-10-13T19:59:16.009Z,58.71
2022-10-13T20:01:43.246Z,58.85
2022-10-13T20:04:14.558Z,58.68
2022-10-13T20:06:43.637Z,58.81
2022-10-13T20:09:10.625Z,58.35
2022-10-13T20:11:37.547Z,58.24
2022-10-13T20:14:04.569Z,58.20
2022-10-13T20:16:31.587Z,58.60
2022-10-13T20:19:00.144Z,58.05
2022-10-13T20:21:28.540Z,58.10
2022-10-13T20:23:55.924Z,58.30
2022-10-13T20:26:23.704Z,58.13
2022-10-13T20:28:52.191Z,57.92
2022-10-13T20:31:21.552Z,57.97
2022-10-13T20:33:53.941Z,57.95
2022-10-13T20:36:21.089Z,58.22
2022-10-13T20:38:49.257Z,57.94
2022-10-13T20:41:29.660Z,57.99
2022-10-13T20:43:59.726Z,58.06
2022-10-13T20:46:27.358Z,57.83
2022-10-13T20:49:11.765Z,58.26
2022-10-13T20:51:39.623Z,58.22
2022-10-13T20:54:06.735Z,58.00
2022-10-13T20:56:33.737Z,57.91
2022-10-13T20:59:08.505Z,58.03
2022-10-13T21:01:35.872Z,57.98
2022-10-13T21:04:03.066Z,57.87
2022-10-13T21:06:30.476Z,57.57
2022-10-13T21:09:00.717Z,58.13
2022-10-13T21:11:27.670Z,57.52
2022-10-13T21:13:54.552Z,57.61
2022-10-13T21:16:27.150Z,57.77
2022-10-13T21:18:56.437Z,57.35
2022-10-13T21:21:26.600Z,57.63
2022-10-13T21:24:01.631Z,57.70
2022-10-13T21:26:30.450Z,57.40
2022-10-13T21:28:57.585Z,57.29
2022-10-13T21:31:25.534Z,57.18
2022-10-13T21:33:52.510Z,57.40
2022-10-13T21:36:26.718Z,57.40
2022-10-13T21:38:57.325Z,57.58
2022-10-13T21:41:24.789Z,57.46
2022-10-13T21:43:52.735Z,57.73
2022-10-13T21:46:30.228Z,57.23
2022-10-13T21:49:00.646Z,57.50
2022-10-13T21:51:36.833Z,57.10
2022-10-13T21:54:09.588Z,57.07
2022-10-13T21:56:37.920Z,57.21
2022-10-13T21:59:05.751Z,56.67
2022-10-13T22:01:33.715Z,56.87
2022-10-13T22:04:02.460Z,56.69
2022-10-13T22:06:32.112Z,56.55
2022-10-13T22:09:01.573Z,57.17
2022-10-13T22:11:31.874Z,57.12
2022-10-13T22:14:04.627Z,56.49
2022-10-13T22:16:42.109Z,56.55
2022-10-13T22:19:10.544Z,56.94
2022-10-13T22:21:42.880Z,56.91
2022-10-13T22:24:19.876Z,56.97
2022-10-13T22:26:49.160Z,56.89
2022-10-13T22:29:20.478Z,57.18
2022-10-13T22:31:47.731Z,57.09
2022-10-13T22:34:15.938Z,57.31
2022-10-13T22:36:45.039Z,56.96
2022-10-13T22:39:12.762Z,57.30
2022-10-13T22:41:39.688Z,57.24
2022-10-13T22:44:06.817Z,56.89
2022-10-13T22:46:36.920Z,56.72
2022-10-13T22:49:05.321Z,57.17
2022-10-13T22:51:34.600Z,56.88
2022-10-13T22:54:01.735Z,56.82
2022-10-13T22:56:32.453Z,57.13
2022-10-13T22:59:07.516Z,56.67
2022-10-13T23:01:34.658Z,57.02
2022-10-13T23:04:01.705Z,57.01
2022-10-13T23:06:33.047Z,56.53
2022-10-13T23:09:05.395Z,56.61
2022-10-13T23:11:32.339Z,56.51
2022-10-13T23:14:01.372Z,56.56
2022-10-13T23:16:28.637Z,56.95
2022-10-13T23:18:55.865Z,57.09
2022-10-13T23:21:26.234Z,56.74
2022-10-13T23:23:59.606Z,56.99
2022-10-13T23:26:27.618Z,57.06
2022-10-13T23:28:58.600Z,57.12
2022-10-13T23:31:27.569Z,57.25
2022-10-13T23:33:54.595Z,57.02
2022-10-13T23:36:25.444Z,57.29
2022-10-13T23:38:58.742Z,56.98
2022-10-13T23:41:26.544Z,57.03
2022-10-13T23:43:53.541Z,57.20
2022-10-13T23:46:20.744Z,57.30
2022-10-13T23:48:47.667Z,57.47
2022-10-13T23:51:19.933Z,57.45
2022-10-13T23:53:47.177Z,57.23
2022-10-13T23:56:15.447Z,57.59
2022-10-13T23:58:43.872Z,57.52
